Latest Weather Observations for Dum In Mirrie

IDD60801

Issued at 11:01 pm CST Tuesday 24 May 2016 (issued every 30 minutes, with the page automatically refreshed every 10 minutes)

About weather observations | Map of weather stations | Latest weather observations for NT | Other Formats
Station Details ID: 014277 Name: DUM IN MIRRIE AIRSTRIP Lat: -12.63 Lon: 130.37 Height: 3.5 m
Data from the previous 72 hours. | See also: Recent months at Dum In Mirrie
Date/Time
CST
Temp
°C
App
Temp
°C
Dew
Point
Rel
Hum
%
Delta-T
°C
Wind Press
QNH
hPa
Press
MSL
hPa
Rain
since 9 am
mm
Dir
 
Spd
km/h
Gust
km/h
Spd
kts
Gust
kts
24/11:00pm 27.9 32.9 23.9 79 2.8 WNW 4 6 2 3 1011.9 1011.9 0.0
24/10:30pm 27.7 32.6 23.7 79 2.8 WNW 4 6 2 3 1012.0 1012.0 0.0
24/10:00pm 28.2 33.2 23.8 77 3.0 WNW 4 6 2 3 1011.9 1011.9 0.0
24/09:30pm 28.4 33.6 24.2 78 2.9 W 4 6 2 3 1011.8 1011.8 0.0
24/09:00pm 28.6 34.3 24.4 78 2.9 WSW 2 7 1 4 1011.7 1011.7 0.0
24/08:30pm 28.7 34.1 24.5 78 2.9 SW 4 6 2 3 1011.3 1011.3 0.0
24/08:00pm 28.7 33.6 24.3 77 3.1 WSW 6 9 3 5 1011.1 1011.1 0.0
24/07:30pm 28.6 33.5 24.4 78 2.9 W 6 9 3 5 1010.8 1010.8 0.0
24/07:00pm 28.5 33.4 24.3 78 2.9 WNW 6 9 3 5 1010.6 1010.6 0.0
24/06:30pm 28.8 33.6 24.1 76 3.3 WNW 6 9 3 5 1010.4 1010.4 0.0
24/06:00pm 29.6 34.3 24.0 72 3.9 WNW 6 9 3 5 1010.1 1010.1 0.0
24/05:30pm 30.5 35.3 24.2 69 4.4 W 6 9 3 5 1009.8 1009.8 0.0
24/05:00pm 30.7 35.2 23.9 67 4.7 WNW 7 11 4 6 1009.8 1009.8 0.0
24/04:30pm 31.1 35.8 24.0 66 4.9 NW 6 9 3 5 1009.8 1009.8 0.0
24/04:00pm 31.1 35.9 24.5 68 4.6 NW 7 13 4 7 1009.9 1009.9 0.0
24/03:30pm 30.9 35.2 24.3 68 4.6 NW 9 17 5 9 1010.0 1010.0 0.0
24/03:00pm 31.7 36.2 24.6 66 5.0 NNW 9 17 5 9 1010.1 1010.1 0.0
24/02:30pm 32.1 36.2 23.3 59 6.1 WNW 7 11 4 6 1010.4 1010.4 0.0
24/02:00pm 31.8 36.3 23.9 63 5.5 NNW 7 17 4 9 1010.9 1010.9 0.0
24/01:30pm 31.7 35.4 23.2 60 5.9 NNW 9 15 5 8 1011.3 1011.3 0.0
24/01:00pm 31.9 36.5 24.2 63 5.4 N 7 15 4 8 1011.8 1011.8 0.0
24/12:30pm 31.0 34.7 23.9 66 4.9 NNW 11 19 6 10 1012.3 1012.3 0.0
24/12:00pm 31.3 35.3 24.4 66 4.8 N 11 17 6 9 1012.7 1012.7 0.0
24/11:30am 31.5 35.7 24.1 65 5.2 NNE 9 15 5 8 1013.1 1013.1 0.0
24/11:00am 31.8 36.7 24.7 66 5.0 NNE 7 13 4 7 1013.3 1013.3 0.0
24/10:30am 30.6 35.2 24.7 71 4.1 NNE 9 15 5 8 1013.3 1013.3 0.0
24/10:00am 30.5 35.0 24.6 70 4.1 NE 9 17 5 9 1013.3 1013.3 0.0
24/09:30am 30.3 34.9 24.7 72 3.9 NE 9 17 5 9 1013.3 1013.3 0.0
24/09:00am 29.4 34.2 24.5 75 3.4 NE 7 9 4 5 1012.9 1012.9 0.0
24/08:30am 28.5 34.3 25.1 82 2.4 E 4 6 2 3 1012.8 1012.8 0.0
24/08:00am 27.1 34.0 25.7 92 1.0 CALM 0 4 0 2 1012.6 1012.6 0.0
24/07:30am 26.7 33.2 25.1 91 1.1 CALM 0 0 0 0 1012.2 1012.2 0.0
24/07:00am 26.5 33.1 25.3 93 0.8 CALM 0 0 0 0 1011.9 1011.9 0.0
24/06:30am 26.1 32.1 24.3 90 1.2 CALM 0 0 0 0 1011.8 1011.8 0.0
24/06:00am 26.6 32.7 24.4 88 1.5 CALM 0 4 0 2 1011.4 1011.4 0.0
24/05:30am 26.7 32.7 24.2 86 1.7 CALM 0 0 0 0 1011.3 1011.3 0.0
24/05:00am 27.8 33.6 24.6 83 2.2 W 2 6 1 3 1011.2 1011.2 0.0
24/04:30am 27.4 33.2 24.5 84 2.0 WNW 2 6 1 3 1011.0 1011.0 0.0
24/04:00am 27.1 32.6 24.6 86 1.7 W 4 7 2 4 1010.9 1010.9 0.0
24/03:30am 27.1 32.6 24.7 87 1.7 NW 4 6 2 3 1011.0 1011.0 0.0
24/03:00am 27.2 33.3 24.5 85 1.9 CALM 0 4 0 2 1011.2 1011.2 0.0
24/02:30am 28.1 33.9 25.1 84 2.1 W 4 7 2 4 1011.3 1011.3 0.0
24/02:00am 28.1 33.3 25.1 84 2.1 W 7 13 4 7 1011.4 1011.4 0.0
24/01:30am 28.1 33.4 24.9 83 2.2 W 6 11 3 6 1011.5 1011.5 0.0
24/01:00am 28.2 33.6 25.2 84 2.1 WSW 6 7 3 4 1011.6 1011.6 0.0
24/12:30am 28.4 34.6 25.2 83 2.2 W 2 6 1 3 1011.9 1011.9 0.0
24/12:00am 28.6 35.2 25.2 82 2.4 CALM 0 0 0 0 1012.1 1012.1 0.0
 
Date/Time
CST
Temp
°C
App
Temp
°C
Dew
Point
Rel
Hum
%
Delta-T
°C
Wind Press
QNH
hPa
Press
MSL
hPa
Rain
since 9 am
mm
Dir
 
Spd
km/h
Gust
km/h
Spd
kts
Gust
kts
23/11:30pm 28.8 35.0 25.2 81 2.5 SW 2 9 1 5 1012.3 1012.3 0.0
23/11:00pm 28.9 35.2 25.3 81 2.5 SW 2 4 1 2 1012.3 1012.3 0.0
23/10:30pm 28.9 34.4 24.7 78 2.9 SSW 4 7 2 4 1012.3 1012.3 0.0
23/10:00pm 29.1 35.1 24.9 78 2.9 WSW 2 7 1 4 1012.1 1012.1 0.0
23/09:30pm 29.2 34.6 24.5 76 3.3 WSW 4 11 2 6 1011.9 1011.9 0.0
23/09:00pm 29.2 34.2 24.5 76 3.3 W 6 11 3 6 1011.4 1011.4 0.0
23/08:30pm 29.1 33.8 24.0 74 3.5 W 6 9 3 5 1011.0 1011.0 0.0
23/08:00pm 29.1 33.9 23.5 72 3.9 W 4 7 2 4 1010.4 1010.4 0.0
23/07:30pm 29.4 33.3 23.6 71 4.0 W 9 15 5 8 1010.1 1010.1 0.0
23/07:00pm 29.1 33.5 23.5 72 3.9 WNW 6 9 3 5 1009.8 1009.8 0.0
23/06:30pm 29.4 33.7 23.6 71 4.0 W 7 13 4 7 1009.5 1009.5 0.0
23/06:00pm 30.0 33.6 23.7 69 4.4 W 11 19 6 10 1009.3 1009.3 0.0
23/05:30pm 30.8 34.6 24.7 70 4.3 W 13 20 7 11 1009.2 1009.2 0.0
23/05:00pm 31.3 35.6 24.9 69 4.5 W 11 17 6 9 1008.9 1008.9 0.0
23/04:30pm 31.4 34.6 24.3 66 5.0 W 15 22 8 12 1008.7 1008.7 0.0
23/04:00pm 32.5 37.3 25.1 65 5.2 W 9 17 5 9 1008.3 1008.3 0.0
23/03:30pm 32.5 37.3 24.5 62 5.6 W 7 15 4 8 1008.5 1008.5 0.0
23/03:00pm 32.7 37.6 25.2 64 5.3 W 9 17 5 9 1008.9 1008.9 0.0
23/02:30pm 32.9 36.9 23.8 58 6.3 WNW 9 15 5 8 1009.2 1009.2 0.0
23/02:00pm 33.6 37.6 22.7 53 7.5 WNW 6 9 3 5 1009.5 1009.5 0.0
23/01:30pm 34.1 37.6 22.2 50 8.2 ESE 7 13 4 7 1010.1 1010.1 0.0
23/01:00pm 33.8 37.9 22.9 53 7.5 SE 6 11 3 6 1010.6 1010.6 0.0
23/12:30pm 34.1 38.2 23.2 53 7.6 ESE 7 13 4 7 1011.3 1011.3 0.0
23/12:00pm 33.5 37.2 22.3 52 7.7 ESE 6 13 3 7 1011.9 1011.9 0.0
23/11:30am 32.2 36.2 23.7 61 5.9 SSE 9 15 5 8 1012.3 1012.3 0.0
23/11:00am 32.0 36.6 23.8 62 5.7 SSE 6 11 3 6 1012.6 1012.6 0.0
23/10:30am 31.4 36.2 24.5 67 4.8 SSW 7 13 4 7 1012.8 1012.8 0.0
23/10:00am 30.2 34.8 25.3 75 3.5 SSW 11 17 6 9 1012.9 1012.9 0.0
23/09:30am 30.0 35.5 25.3 76 3.3 SSW 6 13 3 7 1013.0 1013.0 0.0
23/09:00am 29.1 34.7 25.5 81 2.5 SSW 6 13 3 7 1013.0 1013.0 0.0
23/08:30am 28.3 34.6 25.9 87 1.7 S 4 11 2 6 1012.9 1012.9 0.0
23/08:00am 27.3 33.4 25.7 91 1.1 S 4 7 2 4 1012.6 1012.6 0.0
23/07:30am 26.5 32.8 26.0 97 0.4 S 4 6 2 3 1012.6 1012.6 0.0
23/07:00am 26.0 32.5 25.7 98 0.2 SSW 2 6 1 3 1012.2 1012.2 0.0
23/06:30am 25.2 31.0 24.5 96 0.5 S 2 4 1 2 1011.8 1011.8 0.0
23/06:00am 25.0 30.9 24.1 95 0.6 CALM 0 4 0 2 1011.5 1011.5 0.0
23/05:30am 25.2 31.0 24.0 93 0.8 CALM 0 2 0 1 1011.5 1011.5 0.0
23/05:00am 25.4 31.2 24.0 92 1.0 CALM 0 0 0 0 1011.6 1011.6 0.0
23/04:30am 25.9 31.9 24.3 91 1.1 CALM 0 0 0 0 1011.6 1011.6 0.0
23/04:00am 26.3 32.3 24.9 92 1.0 S 2 4 1 2 1011.5 1011.5 0.0
23/03:30am 26.4 32.6 24.6 90 1.2 CALM 0 2 0 1 1011.7 1011.7 0.0
23/03:00am 26.6 31.9 24.3 87 1.6 SSW 4 6 2 3 1011.9 1011.9 0.0
23/02:30am 25.9 31.0 24.1 90 1.2 SW 4 7 2 4 1011.9 1011.9 0.0
23/02:00am 25.4 31.5 24.5 95 0.6 CALM 0 4 0 2 1012.0 1012.0 0.0
23/01:30am 25.0 30.7 23.8 93 0.8 CALM 0 0 0 0 1012.1 1012.1 0.0
23/01:00am 25.2 30.9 23.8 92 1.0 CALM 0 0 0 0 1012.0 1012.0 0.0
23/12:30am 25.5 31.4 24.1 92 1.0 CALM 0 2 0 1 1012.2 1012.2 0.0
23/12:00am 25.6 31.8 24.6 94 0.7 CALM 0 0 0 0 1012.3 1012.3 0.0
 
Date/Time
CST
Temp
°C
App
Temp
°C
Dew
Point
Rel
Hum
%
Delta-T
°C
Wind Press
QNH
hPa
Press
MSL
hPa
Rain
since 9 am
mm
Dir
 
Spd
km/h
Gust
km/h
Spd
kts
Gust
kts
22/11:30pm 25.1 30.8 23.7 92 1.0 CALM 0 0 0 0 1012.4 1012.4 0.0
22/11:00pm 25.3 31.1 23.9 92 1.0 CALM 0 0 0 0 1012.2 1012.2 0.0
22/10:30pm 25.2 30.8 23.6 91 1.1 CALM 0 0 0 0 1012.3 1012.3 0.0
22/10:00pm 25.3 30.9 23.5 90 1.2 CALM 0 0 0 0 1012.3 1012.3 0.0
22/09:30pm 25.5 31.0 23.4 88 1.4 CALM 0 0 0 0 1012.2 1012.2 0.0
22/09:00pm 25.5 30.9 23.2 87 1.6 CALM 0 0 0 0 1011.8 1011.8 0.0
22/08:30pm 25.8 31.2 23.3 86 1.7 CALM 0 0 0 0 1011.5 1011.5 0.0
22/08:00pm 26.2 31.6 23.3 84 2.0 CALM 0 0 0 0 1011.2 1011.2 0.0
22/07:30pm 26.8 32.2 23.3 81 2.4 CALM 0 2 0 1 1010.9 1010.9 0.0
22/07:00pm 27.5 32.4 23.1 77 3.0 NNW 2 4 1 2 1010.7 1010.7 0.0
22/06:30pm 28.5 33.6 23.4 74 3.5 NNW 2 4 1 2 1010.6 1010.6 0.0
22/06:00pm 29.8 34.7 23.7 70 4.2 NW 4 6 2 3 1010.3 1010.3 0.0
22/05:30pm 30.7 35.7 23.9 67 4.7 WNW 4 7 2 4 1010.1 1010.1 0.0
22/05:00pm 31.0 35.7 23.9 66 4.9 NNW 6 7 3 4 1009.8 1009.8 0.0
22/04:30pm 31.3 36.0 23.9 64 5.1 NNW 6 11 3 6 1009.8 1009.8 0.0
22/04:00pm 31.6 36.1 24.0 64 5.3 NNW 7 11 4 6 1009.9 1009.9 0.0
22/03:30pm 31.7 36.1 23.8 63 5.5 NW 7 15 4 8 1010.1 1010.1 0.0
22/03:00pm 31.7 35.4 23.2 60 5.9 NNW 9 15 5 8 1010.3 1010.3 0.0
22/02:30pm 32.3 36.0 23.3 59 6.2 NNW 9 15 5 8 1010.6 1010.6 0.0
22/02:00pm 33.2 37.3 23.2 55 6.9 NNW 7 15 4 8 1010.8 1010.8 0.0
22/01:30pm 33.4 37.6 23.1 54 7.1 E 6 11 3 6 1011.4 1011.4 0.0
22/01:00pm 32.4 35.7 22.5 56 6.8 NE 9 15 5 8 1011.8 1011.8 0.0
22/12:30pm 32.6 36.7 23.3 58 6.4 NE 7 13 4 7 1012.4 1012.4 0.0
22/12:00pm 31.8 35.3 22.8 59 6.2 ENE 9 17 5 9 1012.8 1012.8 0.0
22/11:30am 31.9 36.1 23.4 60 5.9 ENE 7 13 4 7 1013.2 1013.2 0.0
22/11:00am 30.8 33.8 22.7 62 5.5 ENE 11 19 6 10 1013.5 1013.5 0.0
22/10:30am 30.8 34.1 23.2 64 5.2 E 11 15 6 8 1013.6 1013.6 0.0
22/10:00am 30.0 33.8 23.4 67 4.5 ENE 9 17 5 9 1013.6 1013.6 0.0
22/09:30am 29.9 34.3 23.8 70 4.2 ENE 7 11 4 6 1013.6 1013.6 0.0
22/09:00am 28.9 32.9 23.8 74 3.5 ENE 9 17 5 9 1013.5 1013.5 0.0
22/08:30am 28.3 32.6 24.3 79 2.8 NE 9 13 5 7 1013.4 1013.4 0.0
22/08:00am 27.1 32.0 24.4 85 1.9 NE 6 7 3 4 1013.1 1013.1 0.0
22/07:30am 25.6 30.9 23.7 89 1.3 ENE 2 4 1 2 1013.0 1013.0 0.0
22/07:00am 25.6 30.3 23.3 87 1.6 NNE 4 6 2 3 1012.6 1012.6 0.0
22/06:30am 25.5 29.6 23.2 87 1.6 NNE 7 9 4 5 1012.3 1012.3 0.0
22/06:00am 25.1 29.1 22.8 87 1.6 NE 6 7 3 4 1011.9 1011.9 0.0
22/05:30am 24.9 29.2 22.6 87 1.5 NE 4 6 2 3 1011.5 1011.5 0.0
22/05:00am 25.0 29.1 22.3 85 1.8 NNE 4 7 2 4 1011.5 1011.5 0.0
22/04:30am 25.1 28.9 22.4 85 1.8 ENE 6 7 3 4 1011.2 1011.2 0.0
22/04:00am 25.1 28.8 23.2 89 1.3 NNE 9 13 5 7 1011.2 1011.2 0.0
22/03:30am 25.5 29.1 23.0 86 1.7 NE 9 13 5 7 1011.4 1011.4 0.0
22/03:00am 26.5 29.3 23.0 81 2.4 NE 13 22 7 12 1011.5 1011.5 0.0
22/02:30am 25.3 31.3 24.3 94 0.7 CALM 0 0 0 0 1011.3 1011.3 0.0
22/02:00am 25.5 31.4 24.1 92 1.0 CALM 0 0 0 0 1011.1 1011.1 0.0
22/01:30am 26.0 32.0 24.2 90 1.2 CALM 0 0 0 0 1011.5 1011.5 0.0
22/01:00am 26.6 32.7 24.4 88 1.5 CALM 0 0 0 0 1011.7 1011.7 0.0
22/12:30am 27.3 33.8 25.1 88 1.5 CALM 0 0 0 0 1011.8 1011.8 0.0
22/12:00am 27.4 33.9 25.0 87 1.7 CALM 0 2 0 1 1011.9 1011.9 0.0
 
Date/Time
CST
Temp
°C
App
Temp
°C
Dew
Point
Rel
Hum
%
Delta-T
°C
Wind Press
QNH
hPa
Press
MSL
hPa
Rain
since 9 am
mm
Dir
 
Spd
km/h
Gust
km/h
Spd
kts
Gust
kts
21/11:30pm 26.6 33.3 25.4 93 0.8 CALM 0 0 0 0 1012.2 1012.2 0.0

Other Formats:

Comma delimited format used in spreadsheet applications
http://www.bom.gov.au/fwo/IDD60801/IDD60801.94116.axf

JavaScript Object Notation format (JSON) in row-major order
http://www.bom.gov.au/fwo/IDD60801/IDD60801.94116.json